createdAt,value
2022-10-18T00:00:55.685Z,99.90
2022-10-18T00:03:23.045Z,99.90
2022-10-18T00:05:50.699Z,99.90
2022-10-18T00:08:18.785Z,99.90
2022-10-18T00:10:46.520Z,99.90
2022-10-18T00:13:14.036Z,99.90
2022-10-18T00:15:48.178Z,99.90
2022-10-18T00:18:15.274Z,99.90
2022-10-18T00:20:42.405Z,99.90
2022-10-18T00:23:09.634Z,99.90
2022-10-18T00:25:36.836Z,99.90
2022-10-18T00:28:03.902Z,99.90
2022-10-18T00:30:30.947Z,99.90
2022-10-18T00:32:57.962Z,99.90
2022-10-18T00:35:25.382Z,99.90
2022-10-18T00:37:52.369Z,99.90
2022-10-18T00:40:19.748Z,99.90
2022-10-18T00:42:46.974Z,99.90
2022-10-18T00:45:23.945Z,99.90
2022-10-18T00:47:56.934Z,99.90
2022-10-18T00:50:25.337Z,99.90
2022-10-18T00:52:58.533Z,99.90
2022-10-18T00:55:27.895Z,99.90
2022-10-18T00:57:55.966Z,99.90
2022-10-18T01:00:23.648Z,99.90
2022-10-18T01:02:50.997Z,99.90
2022-10-18T01:05:20.130Z,99.90
2022-10-18T01:07:53.109Z,99.90
2022-10-18T01:10:33.351Z,99.90
2022-10-18T01:13:25.776Z,99.90
2022-10-18T01:16:08.592Z,99.90
2022-10-18T01:18:53.753Z,99.90
2022-10-18T01:21:59.109Z,99.90
2022-10-18T01:24:37.597Z,99.90
2022-10-18T01:27:16.331Z,99.90
2022-10-18T01:30:15.449Z,99.90
2022-10-18T01:32:49.785Z,99.90
2022-10-18T01:35:22.259Z,99.90
2022-10-18T01:37:50.940Z,99.90
2022-10-18T01:40:22.366Z,99.90
2022-10-18T01:42:50.355Z,99.90
2022-10-18T01:45:19.028Z,99.90
2022-10-18T01:47:48.455Z,99.90
2022-10-18T01:50:15.720Z,99.90
2022-10-18T01:52:52.009Z,99.90
2022-10-18T01:55:30.759Z,99.90
2022-10-18T01:58:10.725Z,99.90
2022-10-18T02:00:42.771Z,99.90
2022-10-18T02:03:21.088Z,99.90
2022-10-18T02:05:53.869Z,99.90
2022-10-18T02:08:55.098Z,99.90
2022-10-18T02:11:22.776Z,99.90
2022-10-18T02:13:55.009Z,99.90
2022-10-18T02:16:43.939Z,99.90
2022-10-18T02:19:20.421Z,99.90
2022-10-18T02:21:49.010Z,99.90
2022-10-18T02:24:18.425Z,99.90
2022-10-18T02:26:45.661Z,99.90
2022-10-18T02:29:12.975Z,99.90
2022-10-18T02:31:52.919Z,99.90
2022-10-18T02:34:31.447Z,99.90
2022-10-18T02:37:00.741Z,99.90
2022-10-18T02:39:37.113Z,99.90
2022-10-18T02:42:07.066Z,99.90
2022-10-18T02:44:38.454Z,99.90
2022-10-18T02:47:06.852Z,99.90
2022-10-18T02:49:33.866Z,99.90
2022-10-18T02:52:00.996Z,99.90
2022-10-18T02:54:28.082Z,99.90
2022-10-18T02:56:54.984Z,99.90
2022-10-18T02:59:22.006Z,99.90
2022-10-18T03:01:48.982Z,99.90
2022-10-18T03:04:16.042Z,99.90
2022-10-18T03:06:43.118Z,99.90
2022-10-18T03:09:10.325Z,99.90
2022-10-18T03:11:37.252Z,99.90
2022-10-18T03:14:04.267Z,99.90
2022-10-18T03:16:31.786Z,99.90
2022-10-18T03:18:58.697Z,99.90
2022-10-18T03:21:25.772Z,99.90
2022-10-18T03:23:52.819Z,99.90
2022-10-18T03:26:21.570Z,99.90
2022-10-18T03:28:48.629Z,99.90
2022-10-18T03:31:15.867Z,99.90
2022-10-18T03:33:43.022Z,99.90
2022-10-18T03:36:10.368Z,99.90
2022-10-18T03:38:37.303Z,99.90
2022-10-18T03:41:04.484Z,99.90
2022-10-18T03:43:31.443Z,99.90
2022-10-18T03:45:58.669Z,99.90
2022-10-18T03:48:25.955Z,99.90
2022-10-18T03:50:53.083Z,99.90
2022-10-18T03:53:20.138Z,99.90
2022-10-18T03:55:52.675Z,99.90
2022-10-18T03:58:19.981Z,99.90
2022-10-18T04:00:51.203Z,99.90
2022-10-18T04:03:19.175Z,99.90
2022-10-18T04:05:47.222Z,99.90
2022-10-18T04:08:15.285Z,99.90
2022-10-18T04:10:42.755Z,99.90
2022-10-18T04:13:09.750Z,99.90
2022-10-18T04:15:36.821Z,99.90
2022-10-18T04:18:03.985Z,99.90
2022-10-18T04:20:31.076Z,99.90
2022-10-18T04:22:58.423Z,99.90
2022-10-18T04:25:25.475Z,99.90
2022-10-18T04:27:52.884Z,99.90
2022-10-18T04:30:19.872Z,99.90
2022-10-18T04:32:46.844Z,99.90
2022-10-18T04:35:13.885Z,99.90
2022-10-18T04:37:41.020Z,99.90
2022-10-18T04:40:08.760Z,99.90
2022-10-18T04:42:35.792Z,99.90
2022-10-18T04:45:02.779Z,99.90
2022-10-18T04:47:29.885Z,99.90
2022-10-18T04:49:57.138Z,99.90
2022-10-18T04:52:24.083Z,99.90
2022-10-18T04:54:50.992Z,99.90
2022-10-18T04:57:17.992Z,99.90
2022-10-18T04:59:44.868Z,99.90
2022-10-18T05:02:12.104Z,99.90
2022-10-18T05:04:39.048Z,99.90
2022-10-18T05:07:06.811Z,99.90
2022-10-18T05:09:34.021Z,99.90
2022-10-18T05:12:01.114Z,99.90
2022-10-18T05:14:28.017Z,99.90
2022-10-18T05:16:55.004Z,99.90
2022-10-18T05:19:23.155Z,99.90
2022-10-18T05:21:50.488Z,99.90
2022-10-18T05:24:17.477Z,99.90
2022-10-18T05:26:44.418Z,99.90
2022-10-18T05:29:11.418Z,99.90
2022-10-18T05:31:38.761Z,99.90
2022-10-18T05:34:05.676Z,99.90
2022-10-18T05:36:32.693Z,99.90
2022-10-18T05:39:04.010Z,99.90
2022-10-18T05:41:32.050Z,99.90
2022-10-18T05:43:59.240Z,99.90
2022-10-18T05:46:26.116Z,99.90
2022-10-18T05:48:53.071Z,99.90
2022-10-18T05:51:20.094Z,99.90
2022-10-18T05:53:47.245Z,99.90
2022-10-18T05:56:14.505Z,99.90
2022-10-18T05:58:42.583Z,99.90
2022-10-18T06:01:10.434Z,99.90
2022-10-18T06:03:37.411Z,99.90
2022-10-18T06:06:07.782Z,99.90
2022-10-18T06:08:35.223Z,99.90
2022-10-18T06:11:10.812Z,99.90
2022-10-18T06:13:45.598Z,99.90
2022-10-18T06:16:15.099Z,99.90
2022-10-18T06:18:43.089Z,99.90
2022-10-18T06:21:10.148Z,99.90
2022-10-18T06:23:37.103Z,99.90
2022-10-18T06:26:07.231Z,99.90
2022-10-18T06:28:37.111Z,99.90
2022-10-18T06:31:05.596Z,99.90
2022-10-18T06:33:34.142Z,99.90
2022-10-18T06:36:11.079Z,99.90
2022-10-18T06:38:38.403Z,99.90
2022-10-18T06:41:06.983Z,99.90
2022-10-18T06:43:33.986Z,99.90
2022-10-18T06:46:06.915Z,99.90
2022-10-18T06:48:38.582Z,99.90
2022-10-18T06:51:07.541Z,99.90
2022-10-18T06:53:44.051Z,99.90
2022-10-18T06:56:15.773Z,99.90
2022-10-18T06:58:43.101Z,99.90
2022-10-18T07:01:16.233Z,99.90
2022-10-18T07:03:44.340Z,99.90
2022-10-18T07:06:13.519Z,99.90
2022-10-18T07:08:41.440Z,99.90
2022-10-18T07:11:14.071Z,99.90
2022-10-18T07:13:41.124Z,99.90
2022-10-18T07:16:14.089Z,99.90
2022-10-18T07:18:48.458Z,99.90
2022-10-18T07:21:20.488Z,99.90
2022-10-18T07:23:48.566Z,99.90
2022-10-18T07:26:22.221Z,99.90
2022-10-18T07:29:01.637Z,99.90
2022-10-18T07:31:30.271Z,99.90
2022-10-18T07:33:57.648Z,99.90
2022-10-18T07:36:25.742Z,99.90
2022-10-18T07:38:53.236Z,99.90
2022-10-18T07:41:20.416Z,99.90
2022-10-18T07:43:52.662Z,98.30
2022-10-18T07:46:21.717Z,97.20
2022-10-18T07:48:49.246Z,96.60
2022-10-18T07:51:16.990Z,94.00
2022-10-18T07:53:44.215Z,93.90
2022-10-18T07:56:16.981Z,93.90
2022-10-18T07:58:51.258Z,93.60
2022-10-18T08:01:19.304Z,93.50
2022-10-18T08:03:46.534Z,93.90
2022-10-18T08:06:16.413Z,92.90
2022-10-18T08:08:43.519Z,93.40
2022-10-18T08:11:16.259Z,92.50
2022-10-18T08:13:43.920Z,92.50
2022-10-18T08:16:13.995Z,92.00
2022-10-18T08:18:41.454Z,92.10
2022-10-18T08:21:10.909Z,90.90
2022-10-18T08:23:39.008Z,89.70
2022-10-18T08:26:08.972Z,89.70
2022-10-18T08:28:37.260Z,89.60
2022-10-18T08:31:10.968Z,89.30
2022-10-18T08:33:39.755Z,85.90
2022-10-18T08:36:08.977Z,85.70
2022-10-18T08:38:37.511Z,86.10
2022-10-18T08:41:36.406Z,85.00
2022-10-18T08:44:25.931Z,84.80
2022-10-18T08:46:59.110Z,83.50
2022-10-18T08:49:32.689Z,83.10
2022-10-18T08:52:00.154Z,83.10
2022-10-18T08:54:51.663Z,80.70
2022-10-18T08:57:20.071Z,79.50
2022-10-18T08:59:47.100Z,78.40
2022-10-18T09:02:23.209Z,77.30
2022-10-18T09:05:20.523Z,77.80
2022-10-18T09:07:56.562Z,78.00
2022-10-18T09:10:35.614Z,78.10
2022-10-18T09:13:10.415Z,77.10
2022-10-18T09:16:02.082Z,78.40
2022-10-18T09:19:02.679Z,79.00
2022-10-18T09:21:32.452Z,79.30
2022-10-18T09:24:13.806Z,79.70
2022-10-18T09:26:48.657Z,78.10
2022-10-18T09:29:30.107Z,79.90
2022-10-18T09:32:28.286Z,78.30
2022-10-18T09:35:16.857Z,78.10
2022-10-18T09:37:44.786Z,77.00
2022-10-18T09:40:21.592Z,75.90
2022-10-18T09:42:54.658Z,77.20
2022-10-18T09:45:29.307Z,77.30
2022-10-18T09:48:17.589Z,78.30
2022-10-18T09:51:05.532Z,76.80
2022-10-18T09:53:40.710Z,75.20
2022-10-18T09:56:15.355Z,78.20
2022-10-18T09:58:49.241Z,76.10
2022-10-18T10:01:21.224Z,76.40
2022-10-18T10:03:48.348Z,75.50
2022-10-18T10:06:15.284Z,73.90
2022-10-18T10:08:45.038Z,73.30
2022-10-18T10:11:29.891Z,73.80
2022-10-18T10:14:10.698Z,74.80
2022-10-18T10:17:02.461Z,73.60
2022-10-18T10:20:12.949Z,72.70
2022-10-18T10:22:41.906Z,70.90
2022-10-18T10:25:21.279Z,70.30
2022-10-18T10:27:48.299Z,71.20
2022-10-18T10:30:28.346Z,71.80
2022-10-18T10:32:56.575Z,72.30
2022-10-18T10:35:35.508Z,72.80
2022-10-18T10:38:23.696Z,73.70
2022-10-18T10:40:51.207Z,73.50
2022-10-18T10:43:38.654Z,73.00
2022-10-18T10:46:15.136Z,72.80
2022-10-18T10:49:03.302Z,71.80
2022-10-18T10:51:40.322Z,71.50
2022-10-18T10:54:20.522Z,70.90
2022-10-18T10:57:11.155Z,70.80
2022-10-18T10:59:47.119Z,71.50
2022-10-18T11:02:14.185Z,70.70
2022-10-18T11:04:42.424Z,71.00
2022-10-18T11:07:09.435Z,71.10
2022-10-18T11:09:58.563Z,69.80
2022-10-18T11:12:46.601Z,69.40
2022-10-18T11:15:30.120Z,69.80
2022-10-18T11:18:21.043Z,69.20
2022-10-18T11:21:11.537Z,68.60
2022-10-18T11:23:41.254Z,69.50
2022-10-18T11:26:11.339Z,69.30
2022-10-18T11:28:57.408Z,70.70
2022-10-18T11:31:33.000Z,70.50
2022-10-18T11:34:30.632Z,70.80
2022-10-18T11:37:36.143Z,70.90
2022-10-18T11:40:43.132Z,70.60
2022-10-18T11:44:00.512Z,69.60
2022-10-18T11:47:16.043Z,70.10
2022-10-18T11:50:03.716Z,68.20
2022-10-18T11:52:59.808Z,68.70
2022-10-18T11:55:30.288Z,68.80
2022-10-18T11:58:05.826Z,67.10
2022-10-18T12:01:12.096Z,67.60
2022-10-18T12:04:02.165Z,67.40
2022-10-18T12:06:35.033Z,66.70
2022-10-18T12:09:22.222Z,68.80
2022-10-18T12:12:01.873Z,69.20
2022-10-18T12:14:57.796Z,69.80
2022-10-18T12:17:49.854Z,70.60
2022-10-18T12:20:30.944Z,70.70
2022-10-18T12:23:29.073Z,70.80
2022-10-18T12:26:02.209Z,70.00
2022-10-18T12:28:41.190Z,69.40
2022-10-18T12:31:35.182Z,69.00
2022-10-18T12:34:18.188Z,67.30
2022-10-18T12:40:09.895Z,67.80
2022-10-18T12:42:47.376Z,67.20
2022-10-18T12:45:23.475Z,68.80
2022-10-18T12:47:51.127Z,67.90
2022-10-18T12:50:40.555Z,68.30
2022-10-18T12:53:26.673Z,69.10
2022-10-18T12:55:54.721Z,69.40
2022-10-18T12:58:30.630Z,68.10
2022-10-18T13:01:02.247Z,68.10
2022-10-18T13:03:42.325Z,67.70
2022-10-18T13:06:09.370Z,67.80
2022-10-18T13:08:42.405Z,67.40
2022-10-18T13:11:11.463Z,67.30
2022-10-18T13:14:02.610Z,67.40
2022-10-18T13:16:49.134Z,69.20
2022-10-18T13:19:25.284Z,68.80
2022-10-18T13:22:21.493Z,68.30
2022-10-18T13:25:21.451Z,68.70
2022-10-18T13:27:51.165Z,69.70
2022-10-18T13:30:30.017Z,69.00
2022-10-18T13:32:57.474Z,68.60
2022-10-18T13:35:51.613Z,68.90
2022-10-18T13:38:38.884Z,68.90
2022-10-18T13:41:11.494Z,68.10
2022-10-18T13:43:54.093Z,68.40
2022-10-18T13:46:22.717Z,69.20
2022-10-18T13:48:58.291Z,70.20
2022-10-18T13:51:34.676Z,69.60
2022-10-18T13:54:15.212Z,69.70
2022-10-18T13:57:19.623Z,70.40
2022-10-18T14:00:15.075Z,71.90
2022-10-18T14:03:31.745Z,71.30
2022-10-18T14:06:25.291Z,71.40
2022-10-18T14:09:25.548Z,72.10
2022-10-18T14:12:23.332Z,72.20
2022-10-18T14:15:16.922Z,72.80
2022-10-18T14:17:51.651Z,73.30
2022-10-18T14:20:49.105Z,73.50
2022-10-18T14:23:27.909Z,73.30
2022-10-18T14:26:15.161Z,73.70
2022-10-18T14:28:59.218Z,74.30
2022-10-18T14:31:28.273Z,74.50
2022-10-18T14:33:58.644Z,74.40
2022-10-18T14:36:41.169Z,74.80
2022-10-18T14:39:19.821Z,75.10
2022-10-18T14:41:55.099Z,75.30
2022-10-18T14:44:30.234Z,75.90
2022-10-18T14:47:16.426Z,76.50
2022-10-18T14:49:47.183Z,76.90
2022-10-18T14:52:17.716Z,78.10
2022-10-18T14:54:45.426Z,78.00
2022-10-18T14:57:33.967Z,78.40
2022-10-18T15:00:05.740Z,78.80
2022-10-18T15:02:38.620Z,79.50
2022-10-18T15:05:24.989Z,80.00
2022-10-18T15:07:53.563Z,80.70
2022-10-18T15:10:38.573Z,80.90
2022-10-18T15:13:10.172Z,81.50
2022-10-18T15:15:38.450Z,82.00
2022-10-18T15:18:06.625Z,82.50
2022-10-18T15:20:39.537Z,83.30
2022-10-18T15:23:23.348Z,83.40
2022-10-18T15:25:52.927Z,83.60
2022-10-18T15:28:32.706Z,84.50
2022-10-18T15:31:02.274Z,85.20
2022-10-18T15:33:34.613Z,85.50
2022-10-18T15:36:12.649Z,86.20
2022-10-18T15:38:39.803Z,86.70
2022-10-18T15:41:54.321Z,87.30
2022-10-18T15:44:51.053Z,87.80
2022-10-18T15:47:21.775Z,89.10
2022-10-18T15:49:52.287Z,89.80
2022-10-18T15:52:38.898Z,89.10
2022-10-18T15:55:31.005Z,89.60
2022-10-18T15:58:25.819Z,89.20
2022-10-18T16:00:57.657Z,89.80
2022-10-18T16:03:25.630Z,90.20
2022-10-18T16:06:03.663Z,90.10
2022-10-18T16:08:32.212Z,90.60
2022-10-18T16:11:01.188Z,90.80
2022-10-18T16:13:28.809Z,91.10
2022-10-18T16:15:57.205Z,91.50
2022-10-18T16:18:26.975Z,92.10
2022-10-18T16:20:56.840Z,92.80
2022-10-18T16:23:28.336Z,93.50
2022-10-18T16:25:57.336Z,94.20
2022-10-18T16:28:26.761Z,94.80
2022-10-18T16:31:00.848Z,95.50
2022-10-18T16:33:27.922Z,95.80
2022-10-18T16:35:55.013Z,96.30
2022-10-18T16:38:31.071Z,96.80
2022-10-18T16:41:05.130Z,97.20
2022-10-18T16:43:34.909Z,97.90
2022-10-18T16:46:04.363Z,98.70
2022-10-18T16:48:32.404Z,98.80
2022-10-18T16:50:59.523Z,99.30
2022-10-18T16:53:26.955Z,99.70
2022-10-18T16:56:00.789Z,99.90
2022-10-18T16:58:29.970Z,99.90
2022-10-18T17:00:58.116Z,99.90
2022-10-18T17:03:26.180Z,99.90
2022-10-18T17:05:53.738Z,99.90
2022-10-18T17:08:24.154Z,99.90
2022-10-18T17:10:53.967Z,99.90
2022-10-18T17:13:21.788Z,99.90
2022-10-18T17:15:49.576Z,99.90
2022-10-18T17:18:20.388Z,99.90
2022-10-18T17:20:47.589Z,99.90
2022-10-18T17:23:15.675Z,99.90
2022-10-18T17:25:59.089Z,99.90
2022-10-18T17:28:34.217Z,99.90
2022-10-18T17:31:01.216Z,99.90
2022-10-18T17:33:28.388Z,99.90
2022-10-18T17:35:55.550Z,99.90
2022-10-18T17:38:22.577Z,99.90
2022-10-18T17:40:52.591Z,99.90
2022-10-18T17:43:19.704Z,99.90
2022-10-18T17:45:48.680Z,99.90
2022-10-18T17:48:17.672Z,99.90
2022-10-18T17:50:45.552Z,99.90
2022-10-18T17:53:13.347Z,99.90
2022-10-18T17:55:40.816Z,99.90
2022-10-18T17:58:08.266Z,99.90
2022-10-18T18:00:35.371Z,99.90
2022-10-18T18:03:03.407Z,99.90
2022-10-18T18:05:33.009Z,99.90
2022-10-18T18:08:03.857Z,99.90
2022-10-18T18:10:34.600Z,99.90
2022-10-18T18:13:02.841Z,99.90
2022-10-18T18:15:30.086Z,99.90
2022-10-18T18:17:58.037Z,99.90
2022-10-18T18:20:26.097Z,99.90
2022-10-18T18:22:53.502Z,99.90
2022-10-18T18:25:20.677Z,99.90
2022-10-18T18:27:50.265Z,99.90
2022-10-18T18:30:18.078Z,99.90
2022-10-18T18:32:45.306Z,99.90
2022-10-18T18:35:12.297Z,99.90
2022-10-18T18:37:39.220Z,99.90
2022-10-18T18:40:06.943Z,99.90
2022-10-18T18:42:34.273Z,99.90
2022-10-18T18:45:01.731Z,99.90
2022-10-18T18:47:28.768Z,99.90
2022-10-18T18:49:55.828Z,99.90
2022-10-18T18:52:22.993Z,99.90
2022-10-18T18:54:50.291Z,99.90
2022-10-18T18:57:17.589Z,99.90
2022-10-18T18:59:44.702Z,99.90
2022-10-18T19:02:12.306Z,99.90
2022-10-18T19:04:41.379Z,99.90
2022-10-18T19:07:14.611Z,99.90
2022-10-18T19:09:44.887Z,99.90
2022-10-18T19:12:11.925Z,99.90
2022-10-18T19:14:39.663Z,99.90
2022-10-18T19:17:08.076Z,99.90
2022-10-18T19:19:41.035Z,99.90
2022-10-18T19:22:11.190Z,99.90
2022-10-18T19:24:44.705Z,99.90
2022-10-18T19:27:12.716Z,99.90
2022-10-18T19:29:40.951Z,99.90
2022-10-18T19:32:12.341Z,99.90
2022-10-18T19:34:40.749Z,99.90
2022-10-18T19:37:09.523Z,99.90
2022-10-18T19:39:36.453Z,99.90
2022-10-18T19:42:06.519Z,99.90
2022-10-18T19:44:35.991Z,99.90
2022-10-18T19:47:04.779Z,99.90
2022-10-18T19:49:32.280Z,99.90
2022-10-18T19:51:59.717Z,99.90
2022-10-18T19:54:27.359Z,99.90
2022-10-18T19:56:54.689Z,99.90
2022-10-18T19:59:22.925Z,99.90
2022-10-18T20:01:53.390Z,99.90
2022-10-18T20:04:20.892Z,99.90
2022-10-18T20:06:48.057Z,99.90
2022-10-18T20:09:19.699Z,99.90
2022-10-18T20:11:48.078Z,99.90
2022-10-18T20:14:15.904Z,99.90
2022-10-18T20:16:43.160Z,99.90
2022-10-18T20:19:12.307Z,99.90
2022-10-18T20:21:40.034Z,99.90
2022-10-18T20:24:10.211Z,99.90
2022-10-18T20:26:38.075Z,99.90
2022-10-18T20:29:05.739Z,99.90
2022-10-18T20:31:36.299Z,99.90
2022-10-18T20:34:06.609Z,99.90
2022-10-18T20:36:35.068Z,99.90
2022-10-18T20:39:03.103Z,99.90
2022-10-18T20:41:33.758Z,99.90
2022-10-18T20:44:03.011Z,99.90
2022-10-18T20:46:31.773Z,99.90
2022-10-18T20:48:59.333Z,99.90
2022-10-18T20:51:26.618Z,99.90
2022-10-18T20:53:54.216Z,99.90
2022-10-18T20:56:24.191Z,99.90
2022-10-18T20:58:53.551Z,99.90
2022-10-18T21:01:23.471Z,99.90
2022-10-18T21:03:52.484Z,99.90
2022-10-18T21:06:31.047Z,99.90
2022-10-18T21:09:03.887Z,99.90
2022-10-18T21:11:34.318Z,99.90
2022-10-18T21:14:05.485Z,99.90
2022-10-18T21:16:35.244Z,99.90
2022-10-18T21:19:07.349Z,99.90
2022-10-18T21:21:34.796Z,99.90
2022-10-18T21:24:05.368Z,99.90
2022-10-18T21:26:35.680Z,99.90
2022-10-18T21:29:03.803Z,99.90
2022-10-18T21:31:33.931Z,99.90
2022-10-18T21:34:03.442Z,99.90
2022-10-18T21:36:31.746Z,99.90
2022-10-18T21:38:59.084Z,99.90
2022-10-18T21:41:26.219Z,99.90
2022-10-18T21:43:55.104Z,99.90
2022-10-18T21:46:26.239Z,99.90
2022-10-18T21:48:55.986Z,99.90
2022-10-18T21:51:27.098Z,99.90
2022-10-18T21:53:57.020Z,99.90
2022-10-18T21:56:29.980Z,99.90
2022-10-18T21:58:57.597Z,99.90
2022-10-18T22:01:32.594Z,99.90
2022-10-18T22:04:01.528Z,99.90
2022-10-18T22:06:32.808Z,99.90
2022-10-18T22:09:03.919Z,99.90
2022-10-18T22:11:52.661Z,99.90
2022-10-18T22:14:20.224Z,99.90
2022-10-18T22:16:47.204Z,99.90
2022-10-18T22:19:14.400Z,99.90
2022-10-18T22:21:41.297Z,99.90
2022-10-18T22:24:09.309Z,99.90
2022-10-18T22:26:38.953Z,99.90
2022-10-18T22:29:17.290Z,99.90
2022-10-18T22:31:53.236Z,99.90
2022-10-18T22:34:23.825Z,99.90
2022-10-18T22:36:51.170Z,99.90
2022-10-18T22:39:18.303Z,99.90
2022-10-18T22:41:46.636Z,99.90
2022-10-18T22:44:14.744Z,99.90
2022-10-18T22:46:42.570Z,99.90
2022-10-18T22:49:09.665Z,99.90
2022-10-18T22:51:36.621Z,99.90
2022-10-18T22:54:04.236Z,99.90
2022-10-18T22:56:31.594Z,99.90
2022-10-18T22:58:58.757Z,99.90
2022-10-18T23:01:25.835Z,99.90
2022-10-18T23:03:57.499Z,99.90
2022-10-18T23:06:33.104Z,99.90
2022-10-18T23:09:01.781Z,99.90
2022-10-18T23:11:30.267Z,99.90
2022-10-18T23:13:58.487Z,99.90
2022-10-18T23:16:25.592Z,99.90
2022-10-18T23:18:55.036Z,99.90
2022-10-18T23:21:24.373Z,99.90
2022-10-18T23:23:52.941Z,99.90
2022-10-18T23:26:22.829Z,99.90
2022-10-18T23:28:51.637Z,99.90
2022-10-18T23:31:24.282Z,99.90
2022-10-18T23:33:53.528Z,99.90
2022-10-18T23:36:21.710Z,99.90
2022-10-18T23:38:49.205Z,99.90
2022-10-18T23:41:17.242Z,99.90
2022-10-18T23:43:45.099Z,99.90
2022-10-18T23:46:13.677Z,99.90
2022-10-18T23:48:40.575Z,99.90
2022-10-18T23:51:08.230Z,99.90
2022-10-18T23:53:35.837Z,99.90
2022-10-18T23:56:06.667Z,99.90
2022-10-18T23:58:35.310Z,99.90
